createdAt,value
2023-01-19T00:00:21.117Z,4.40
2023-01-19T00:10:27.209Z,3.25
2023-01-19T00:15:30.339Z,4.43
2023-01-19T00:20:33.502Z,4.15
2023-01-19T00:25:37.379Z,4.38
2023-01-19T00:30:41.196Z,3.95
2023-01-19T00:35:44.593Z,4.43
2023-01-19T00:40:48.547Z,4.10
2023-01-19T00:45:51.848Z,3.97
2023-01-19T00:55:58.593Z,4.90
2023-01-19T01:01:01.861Z,4.13
2023-01-19T01:06:06.079Z,3.67
2023-01-19T01:11:10.645Z,3.78
2023-01-19T01:16:16.098Z,3.85
2023-01-19T01:21:19.273Z,3.90
2023-01-19T01:26:22.694Z,4.05
2023-01-19T01:36:29.554Z,5.00
2023-01-19T01:41:32.973Z,5.13
2023-01-19T01:46:36.560Z,5.22
2023-01-19T01:51:44.170Z,5.93
2023-01-19T01:56:50.139Z,6.45
2023-01-19T02:01:57.407Z,5.50
2023-01-19T02:07:01.385Z,5.40
2023-01-19T02:12:05.363Z,6.68
2023-01-19T02:17:08.782Z,5.75
2023-01-19T02:22:39.951Z,5.85
2023-01-19T02:27:43.540Z,6.15
2023-01-19T02:32:46.937Z,6.53
2023-01-19T02:37:53.296Z,6.70
2023-01-19T02:43:00.045Z,5.85
2023-01-19T02:48:03.986Z,5.60
2023-01-19T02:53:10.736Z,6.05
2023-01-19T02:58:27.679Z,6.68
2023-01-19T03:03:40.515Z,6.60
2023-01-19T03:08:59.202Z,6.93
2023-01-19T03:14:12.465Z,7.05
2023-01-19T03:19:26.606Z,7.13
2023-01-19T03:24:34.491Z,6.72
2023-01-19T03:29:42.447Z,6.90
2023-01-19T03:34:50.077Z,6.53
2023-01-19T03:39:53.459Z,7.07
2023-01-19T03:45:00.281Z,6.25
2023-01-19T03:50:11.254Z,8.15
2023-01-19T03:55:14.482Z,6.00
2023-01-19T04:00:18.291Z,6.35
2023-01-19T04:05:22.112Z,6.43
2023-01-19T04:10:25.739Z,6.25
2023-01-19T04:15:30.773Z,5.60
2023-01-19T04:20:34.448Z,5.80
2023-01-19T04:30:42.168Z,5.72
2023-01-19T04:40:50.230Z,5.65
2023-01-19T04:45:53.345Z,7.57
2023-01-19T04:50:56.529Z,5.82
2023-01-19T04:55:59.850Z,6.25
2023-01-19T05:06:10.340Z,6.50
2023-01-19T05:11:13.729Z,5.38
2023-01-19T05:16:18.555Z,5.72
2023-01-19T05:26:24.775Z,5.78
2023-01-19T05:36:32.011Z,6.00
2023-01-19T05:41:36.272Z,6.57
2023-01-19T05:46:40.594Z,6.20
2023-01-19T05:51:44.033Z,6.00
2023-01-19T05:56:47.310Z,6.25
2023-01-19T06:01:54.584Z,6.25
2023-01-19T06:06:57.977Z,6.47
2023-01-19T06:12:01.194Z,6.30
2023-01-19T06:17:05.048Z,6.32
2023-01-19T06:22:09.178Z,6.95
2023-01-19T06:27:12.605Z,6.88
2023-01-19T06:32:16.005Z,6.15
2023-01-19T06:37:19.167Z,7.13
2023-01-19T06:42:22.437Z,7.18
2023-01-19T06:47:26.755Z,7.03
2023-01-19T06:52:29.901Z,6.30
2023-01-19T07:02:37.182Z,6.88
2023-01-19T07:07:40.656Z,7.38
2023-01-19T07:17:46.977Z,6.50
2023-01-19T07:22:56.449Z,7.25
2023-01-19T07:28:01.149Z,6.93
2023-01-19T07:33:04.482Z,6.80
2023-01-19T07:38:07.985Z,7.15
2023-01-19T07:43:11.187Z,7.45
2023-01-19T07:53:18.105Z,8.88
2023-01-19T07:58:21.720Z,8.38
2023-01-19T08:03:24.855Z,8.70
2023-01-19T08:13:32.667Z,8.48
2023-01-19T08:18:36.508Z,7.93
2023-01-19T08:23:39.873Z,8.75
2023-01-19T08:28:43.280Z,8.63
2023-01-19T08:38:49.579Z,8.60
2023-01-19T08:43:54.663Z,8.23
2023-01-19T08:48:58.655Z,8.90
2023-01-19T08:54:01.824Z,10.50
2023-01-19T08:59:09.762Z,9.23
2023-01-19T09:04:13.295Z,9.45
2023-01-19T09:14:19.937Z,9.10
2023-01-19T09:19:23.520Z,8.68
2023-01-19T09:24:26.986Z,9.25
2023-01-19T09:29:30.474Z,9.40
2023-01-19T09:39:37.726Z,9.15
2023-01-19T09:44:43.907Z,9.05
2023-01-19T09:49:55.664Z,8.68
2023-01-19T09:54:59.236Z,8.77
2023-01-19T10:00:03.406Z,9.20
2023-01-19T10:05:34.667Z,9.93
2023-01-19T10:10:41.780Z,11.35
2023-01-19T10:15:59.718Z,10.18
2023-01-19T10:21:14.829Z,10.45
2023-01-19T10:26:30.112Z,10.57
2023-01-19T10:31:36.346Z,10.55
2023-01-19T10:36:41.170Z,11.20
2023-01-19T10:41:53.731Z,9.93
2023-01-19T10:46:59.951Z,10.73
2023-01-19T10:52:06.151Z,10.43
2023-01-19T10:57:11.950Z,8.68
2023-01-19T11:02:26.930Z,7.68
2023-01-19T11:07:32.780Z,6.97
2023-01-19T11:12:43.488Z,7.53
2023-01-19T11:17:47.904Z,7.32
2023-01-19T11:23:29.040Z,7.38
2023-01-19T11:28:44.990Z,8.05
2023-01-19T11:33:50.952Z,8.30
2023-01-19T11:38:56.699Z,7.47
2023-01-19T11:44:35.366Z,6.95
2023-01-19T11:50:13.775Z,7.65
2023-01-19T11:55:46.664Z,6.28
2023-01-19T12:01:19.868Z,6.25
2023-01-19T12:06:32.408Z,6.05
2023-01-19T12:12:04.847Z,6.20
2023-01-19T12:17:16.662Z,5.55
2023-01-19T12:22:20.893Z,5.18
2023-01-19T12:27:46.561Z,5.05
2023-01-19T12:32:49.912Z,4.38
2023-01-19T12:37:53.449Z,4.55
2023-01-19T12:42:59.118Z,4.65
2023-01-19T12:48:05.181Z,4.78
2023-01-19T12:53:19.157Z,4.45
2023-01-19T12:58:25.397Z,3.92
2023-01-19T13:03:28.444Z,4.22
2023-01-19T13:08:53.082Z,4.43
2023-01-19T13:13:58.951Z,4.63
2023-01-19T13:19:06.530Z,5.10
2023-01-19T13:24:17.769Z,4.63
2023-01-19T13:29:32.748Z,4.07
2023-01-19T13:34:47.166Z,4.55
2023-01-19T13:39:54.048Z,4.00
2023-01-19T13:45:01.311Z,4.45
2023-01-19T13:50:06.647Z,4.00
2023-01-19T13:55:14.424Z,3.70
2023-01-19T14:00:26.065Z,3.50
2023-01-19T14:05:30.658Z,4.22
2023-01-19T14:10:35.927Z,4.75
2023-01-19T14:15:39.568Z,3.70
2023-01-19T14:21:03.279Z,4.05
2023-01-19T14:26:45.607Z,3.83
2023-01-19T14:32:05.264Z,4.00
2023-01-19T14:37:18.469Z,4.30
2023-01-19T14:42:32.449Z,4.45
2023-01-19T14:47:39.496Z,5.22
2023-01-19T14:52:44.394Z,4.55
2023-01-19T14:57:48.225Z,6.00
2023-01-19T15:02:51.570Z,6.93
2023-01-19T15:18:04.747Z,7.13
2023-01-19T15:23:10.989Z,6.43
2023-01-19T15:28:19.352Z,7.15
2023-01-19T15:33:27.138Z,8.30
2023-01-19T15:38:30.319Z,7.25
2023-01-19T15:43:34.044Z,7.43
2023-01-19T15:48:37.427Z,6.78
2023-01-19T15:58:46.624Z,6.32
2023-01-19T16:03:50.695Z,7.68
2023-01-19T16:08:55.316Z,7.13
2023-01-19T16:13:58.667Z,7.15
2023-01-19T16:19:02.120Z,7.95
2023-01-19T16:24:05.344Z,7.90
2023-01-19T16:29:09.770Z,7.45
2023-01-19T16:34:13.689Z,7.38
2023-01-19T16:39:17.294Z,6.65
2023-01-19T16:44:20.721Z,6.28
2023-01-19T16:49:28.271Z,6.10
2023-01-19T16:54:31.773Z,5.43
2023-01-19T17:14:44.399Z,4.55
2023-01-19T17:24:51.882Z,3.97
2023-01-19T17:29:55.160Z,3.67
2023-01-19T17:35:01.725Z,3.78
2023-01-19T17:40:10.352Z,4.18
2023-01-19T17:45:13.888Z,5.07
2023-01-19T17:50:17.909Z,4.25
2023-01-19T17:55:21.340Z,4.60
2023-01-19T18:00:24.838Z,4.60
2023-01-19T18:05:28.012Z,5.07
2023-01-19T18:15:38.642Z,4.63
2023-01-19T18:20:41.803Z,5.15
2023-01-19T18:25:45.030Z,4.65
2023-01-19T18:35:51.786Z,4.32
2023-01-19T18:41:02.147Z,4.38
2023-01-19T18:46:05.710Z,3.83
2023-01-19T18:51:14.178Z,4.20
2023-01-19T18:56:17.583Z,4.43
2023-01-19T19:01:26.788Z,4.50
2023-01-19T19:06:30.044Z,4.38
2023-01-19T19:11:35.475Z,4.57
2023-01-19T19:16:39.551Z,4.72
2023-01-19T19:21:43.523Z,4.45
2023-01-19T19:26:46.762Z,3.65
2023-01-19T19:31:50.207Z,3.97
2023-01-19T19:36:54.743Z,3.88
2023-01-19T19:41:58.053Z,4.30
2023-01-19T19:47:01.259Z,4.13
2023-01-19T19:52:04.956Z,4.63
2023-01-19T19:57:08.170Z,4.10
2023-01-19T20:07:17.810Z,3.67
2023-01-19T20:12:21.416Z,4.63
2023-01-19T20:17:24.911Z,4.18
2023-01-19T20:22:28.246Z,4.75
2023-01-19T20:32:34.498Z,4.63
2023-01-19T20:37:38.097Z,4.63
2023-01-19T20:47:45.973Z,4.10
2023-01-19T20:57:52.395Z,5.35
2023-01-19T21:02:56.642Z,4.32
2023-01-19T21:07:59.788Z,4.22
2023-01-19T21:13:03.189Z,4.40
2023-01-19T21:23:11.082Z,4.13
2023-01-19T21:28:14.583Z,4.55
2023-01-19T21:33:18.383Z,4.25
2023-01-19T21:38:22.703Z,5.00
2023-01-19T21:43:26.127Z,4.22
2023-01-19T21:48:31.454Z,4.93
2023-01-19T21:53:34.855Z,4.50
2023-01-19T21:58:38.534Z,4.07
2023-01-19T22:03:42.857Z,4.63
2023-01-19T22:08:46.999Z,4.18
2023-01-19T22:13:50.312Z,4.43
2023-01-19T22:23:59.840Z,4.22
2023-01-19T22:29:04.272Z,4.50
2023-01-19T22:34:07.440Z,4.60
2023-01-19T22:39:12.245Z,4.22
2023-01-19T22:44:20.679Z,4.32
2023-01-19T22:49:23.767Z,4.65
2023-01-19T22:54:26.925Z,4.63
2023-01-19T22:59:30.245Z,4.28
2023-01-19T23:04:33.894Z,4.22
2023-01-19T23:09:38.184Z,4.38
2023-01-19T23:14:41.464Z,4.35
2023-01-19T23:24:47.672Z,4.80
2023-01-19T23:34:54.220Z,4.80
2023-01-19T23:39:57.291Z,4.85
2023-01-19T23:45:00.513Z,4.68
2023-01-19T23:50:05.727Z,4.93
2023-01-19T23:55:09.464Z,5.40
